Time;durP1;ratioP1;P1;durP2;ratioP2;P2;SDS_P1;SDS_P2;PMS_P1;PMS_P2;Temp;Humidity;BMP_temperature;BMP_pressure;BME280_temperature;BME280_humidity;BME280_pressure;Samples;Min_cycle;Max_cycle;Signal;HPM_P1;HPM_P2
2022/10/10 00:01:50;;;;;;;6.45;3.75;;;;;;;;;;5071762;28;20322;-81
2022/10/10 00:04:16;;;;;;;9.23;4.32;;;;;;;;;;5067249;28;20029;-82
2022/10/10 00:06:42;;;;;;;8.27;3.92;;;;;;;;;;5072164;28;20024;-81
2022/10/10 00:09:09;;;;;;;6.68;3.95;;;;;;;;;;5070550;28;20025;-81
2022/10/10 00:11:35;;;;;;;8.93;5.50;;;;;;;;;;5070288;28;20049;-82
2022/10/10 00:14:01;;;;;;;8.18;4.78;;;;;;;;;;5063687;28;20021;-83
2022/10/10 00:16:27;;;;;;;8.05;4.57;;;;;;;;;;5041110;28;20047;-82
2022/10/10 00:18:53;;;;;;;8.02;4.60;;;;;;;;;;5058908;28;20081;-82
2022/10/10 00:21:19;;;;;;;8.45;4.95;;;;;;;;;;5058704;28;20024;-82
2022/10/10 00:23:45;;;;;;;12.98;5.20;;;;;;;;;;5059902;28;20021;-82
2022/10/10 00:26:11;;;;;;;9.68;5.32;;;;;;;;;;5057636;28;20060;-81
2022/10/10 00:28:37;;;;;;;10.43;5.35;;;;;;;;;;5058280;28;20060;-81
2022/10/10 00:31:04;;;;;;;9.05;5.68;;;;;;;;;;5060290;28;20139;-82
2022/10/10 00:33:30;;;;;;;11.18;5.05;;;;;;;;;;5057445;28;20056;-81
2022/10/10 00:35:56;;;;;;;10.88;5.70;;;;;;;;;;5057016;28;20390;-82
2022/10/10 00:38:22;;;;;;;9.10;5.25;;;;;;;;;;5036807;28;20036;-82
2022/10/10 00:40:49;;;;;;;8.73;5.50;;;;;;;;;;5055318;28;20025;-82
2022/10/10 00:43:16;;;;;;;8.18;5.45;;;;;;;;;;5056532;28;20033;-82
2022/10/10 00:45:43;;;;;;;8.45;5.07;;;;;;;;;;5057329;28;20024;-82
2022/10/10 00:48:12;;;;;;;11.23;6.03;;;;;;;;;;5057136;28;20230;-82
2022/10/10 00:50:39;;;;;;;10.40;5.88;;;;;;;;;;5054936;28;20064;-82
2022/10/10 00:53:06;;;;;;;7.70;4.85;;;;;;;;;;5054717;28;20407;-83
2022/10/10 00:55:32;;;;;;;9.45;5.75;;;;;;;;;;5057469;28;20474;-83
2022/10/10 00:57:58;;;;;;;10.27;5.68;;;;;;;;;;5056397;28;20170;-83
2022/10/10 01:00:25;;;;;;;13.30;6.78;;;;;;;;;;5054067;28;20025;-83
2022/10/10 01:02:51;;;;;;;11.70;6.10;;;;;;;;;;5055358;28;20047;-83
2022/10/10 01:05:17;;;;;;;10.18;6.05;;;;;;;;;;5056789;28;20108;-83
2022/10/10 01:07:44;;;;;;;12.45;6.03;;;;;;;;;;5055189;28;20025;-83
2022/10/10 01:10:14;;;;;;;10.48;6.18;;;;;;;;;;5055298;28;20033;-83
2022/10/10 01:12:47;;;;;;;9.10;5.72;;;;;;;;;;5054865;28;20033;-83
2022/10/10 01:15:31;;;;;;;9.50;5.85;;;;;;;;;;5056040;28;20031;-83
2022/10/10 01:17:57;;;;;;;10.32;5.93;;;;;;;;;;5055283;28;20391;-83
2022/10/10 01:20:35;;;;;;;9.85;6.35;;;;;;;;;;5055426;28;20035;-83
2022/10/10 01:23:08;;;;;;;8.88;5.90;;;;;;;;;;5053487;28;20064;-83
2022/10/10 01:25:48;;;;;;;10.63;6.78;;;;;;;;;;5051277;28;20092;-83
2022/10/10 01:28:17;;;;;;;11.10;6.25;;;;;;;;;;5054313;28;20029;-83
2022/10/10 01:30:43;;;;;;;11.23;6.25;;;;;;;;;;5054499;28;20051;-83
2022/10/10 01:33:16;;;;;;;9.32;6.50;;;;;;;;;;5055427;28;20025;-82
2022/10/10 01:35:50;;;;;;;9.73;5.80;;;;;;;;;;5054993;28;20116;-82
2022/10/10 01:38:31;;;;;;;10.10;5.65;;;;;;;;;;5053549;28;20103;-82
2022/10/10 01:41:02;;;;;;;9.80;6.18;;;;;;;;;;5054433;28;20436;-81
2022/10/10 01:43:29;;;;;;;10.17;6.90;;;;;;;;;;5048112;28;20024;-82
2022/10/10 01:45:55;;;;;;;11.23;6.82;;;;;;;;;;5055495;28;20452;-83
2022/10/10 01:48:24;;;;;;;10.38;6.45;;;;;;;;;;5054177;28;20060;-83
2022/10/10 01:51:07;;;;;;;11.90;6.57;;;;;;;;;;5053146;28;20395;-83
2022/10/10 01:53:33;;;;;;;9.65;6.20;;;;;;;;;;5053376;28;20029;-83
2022/10/10 01:56:09;;;;;;;10.88;6.28;;;;;;;;;;5055210;28;20031;-82
2022/10/10 01:58:35;;;;;;;11.02;6.38;;;;;;;;;;5054920;28;20025;-83
2022/10/10 02:01:07;;;;;;;11.75;6.95;;;;;;;;;;5035771;28;20510;-83
2022/10/10 02:03:36;;;;;;;11.60;6.47;;;;;;;;;;5053358;28;20111;-83
2022/10/10 02:06:02;;;;;;;12.05;6.43;;;;;;;;;;5053803;28;20351;-83
2022/10/10 02:08:35;;;;;;;11.23;6.65;;;;;;;;;;5052670;28;20059;-83
2022/10/10 02:11:07;;;;;;;12.48;7.00;;;;;;;;;;5052136;28;20051;-83
2022/10/10 02:13:36;;;;;;;10.70;6.53;;;;;;;;;;5053465;28;20108;-83
2022/10/10 02:16:04;;;;;;;9.77;6.18;;;;;;;;;;5036797;28;20029;-83
2022/10/10 02:18:31;;;;;;;12.80;7.22;;;;;;;;;;5054245;28;20457;-83
2022/10/10 02:20:57;;;;;;;12.02;7.50;;;;;;;;;;5053740;28;20017;-83
2022/10/10 02:23:24;;;;;;;10.10;6.22;;;;;;;;;;5054313;28;20029;-83
2022/10/10 02:25:52;;;;;;;10.93;6.18;;;;;;;;;;5053657;28;20024;-83
2022/10/10 02:28:25;;;;;;;11.95;6.55;;;;;;;;;;5035676;28;20025;-83
2022/10/10 02:30:55;;;;;;;11.15;7.50;;;;;;;;;;5033932;28;20021;-82
2022/10/10 02:33:25;;;;;;;13.77;6.57;;;;;;;;;;5016265;28;20040;-83
2022/10/10 02:35:51;;;;;;;11.13;6.32;;;;;;;;;;5040617;28;20398;-83
2022/10/10 02:38:18;;;;;;;10.40;6.30;;;;;;;;;;5054908;28;20567;-83
2022/10/10 02:40:45;;;;;;;11.23;6.45;;;;;;;;;;5051355;28;20024;-83
2022/10/10 02:43:11;;;;;;;9.27;6.20;;;;;;;;;;5037253;28;20037;-82
2022/10/10 02:45:38;;;;;;;10.82;6.05;;;;;;;;;;5042513;28;20017;-82
2022/10/10 02:48:05;;;;;;;11.10;6.45;;;;;;;;;;5057784;28;20037;-83
2022/10/10 02:50:31;;;;;;;9.93;6.13;;;;;;;;;;5040937;28;20017;-82
2022/10/10 02:52:57;;;;;;;10.85;6.63;;;;;;;;;;5039565;28;20235;-83
2022/10/10 02:55:23;;;;;;;11.15;6.93;;;;;;;;;;5049268;28;20116;-83
2022/10/10 02:57:49;;;;;;;11.65;6.70;;;;;;;;;;5057668;28;20025;-83
2022/10/10 03:00:15;;;;;;;11.50;6.75;;;;;;;;;;5042387;28;20028;-83
2022/10/10 03:02:42;;;;;;;10.10;6.18;;;;;;;;;;5057477;28;20039;-83
2022/10/10 03:05:08;;;;;;;11.23;6.40;;;;;;;;;;5057708;28;20027;-82
2022/10/10 03:07:34;;;;;;;11.63;6.68;;;;;;;;;;5057958;28;20075;-84
2022/10/10 03:10:00;;;;;;;10.48;5.95;;;;;;;;;;5056955;28;20094;-83
2022/10/10 03:12:26;;;;;;;10.05;6.10;;;;;;;;;;5039547;28;20017;-83
2022/10/10 03:14:52;;;;;;;11.60;5.97;;;;;;;;;;5058276;28;20017;-83
2022/10/10 03:17:18;;;;;;;13.23;7.50;;;;;;;;;;5057071;28;20082;-82
2022/10/10 03:19:44;;;;;;;12.23;7.18;;;;;;;;;;5057517;28;20072;-81
2022/10/10 03:22:11;;;;;;;12.20;6.82;;;;;;;;;;5057390;28;20040;-81
2022/10/10 03:24:38;;;;;;;14.60;6.68;;;;;;;;;;5055546;28;20563;-83
2022/10/10 03:27:03;;;;;;;10.75;5.78;;;;;;;;;;5056599;28;20035;-82
2022/10/10 03:29:29;;;;;;;13.07;6.20;;;;;;;;;;5056852;28;20447;-83
2022/10/10 03:31:55;;;;;;;10.20;6.05;;;;;;;;;;5055878;28;20021;-83
2022/10/10 03:34:22;;;;;;;11.93;7.30;;;;;;;;;;5052739;28;20052;-83
2022/10/10 03:36:47;;;;;;;12.10;6.55;;;;;;;;;;5054641;28;20104;-83
2022/10/10 03:39:13;;;;;;;10.55;5.88;;;;;;;;;;5057151;28;20065;-83
2022/10/10 03:41:39;;;;;;;12.20;6.28;;;;;;;;;;5060710;28;20035;-83
2022/10/10 03:44:05;;;;;;;11.32;6.78;;;;;;;;;;5068675;28;20025;-83
2022/10/10 03:46:33;;;;;;;10.23;6.32;;;;;;;;;;5067947;28;20364;-83
2022/10/10 03:48:59;;;;;;;10.82;6.70;;;;;;;;;;5056659;28;20048;-83
2022/10/10 03:51:25;;;;;;;8.80;5.53;;;;;;;;;;5055898;28;20025;-82
2022/10/10 03:53:51;;;;;;;9.85;5.85;;;;;;;;;;5052990;28;20039;-83
2022/10/10 03:56:17;;;;;;;10.00;5.47;;;;;;;;;;5031094;28;20749;-84
2022/10/10 03:58:43;;;;;;;11.63;5.38;;;;;;;;;;5027416;28;20490;-81
2022/10/10 04:01:09;;;;;;;8.80;5.18;;;;;;;;;;5055572;28;20032;-83
2022/10/10 04:03:35;;;;;;;6.88;4.60;;;;;;;;;;5052828;28;20018;-82
2022/10/10 04:06:01;;;;;;;9.43;4.45;;;;;;;;;;5051005;28;20490;-83
2022/10/10 04:08:29;;;;;;;7.97;4.57;;;;;;;;;;5057306;28;20029;-83
2022/10/10 04:10:55;;;;;;;8.32;4.57;;;;;;;;;;5057804;28;20080;-83
2022/10/10 04:13:22;;;;;;;7.78;3.70;;;;;;;;;;5056701;28;20541;-84
2022/10/10 04:15:51;;;;;;;8.88;4.10;;;;;;;;;;5057641;28;20029;-83
2022/10/10 04:18:18;;;;;;;6.25;3.40;;;;;;;;;;5057592;28;20086;-85
2022/10/10 04:20:44;;;;;;;7.18;3.90;;;;;;;;;;5057592;28;20028;-82
2022/10/10 04:23:10;;;;;;;8.55;4.05;;;;;;;;;;5056612;28;20471;-83
2022/10/10 04:25:36;;;;;;;8.05;3.88;;;;;;;;;;5054326;28;20013;-82
2022/10/10 04:28:02;;;;;;;8.40;4.47;;;;;;;;;;5049665;28;20064;-83
2022/10/10 04:30:31;;;;;;;6.60;3.72;;;;;;;;;;5050710;28;20100;-84
2022/10/10 04:32:57;;;;;;;8.18;4.30;;;;;;;;;;5036093;28;20048;-83
2022/10/10 04:35:23;;;;;;;7.95;3.70;;;;;;;;;;5052635;28;20029;-83
2022/10/10 04:37:49;;;;;;;9.23;4.13;;;;;;;;;;5063604;28;20028;-83
2022/10/10 04:40:15;;;;;;;9.73;3.92;;;;;;;;;;5054233;28;20024;-82
2022/10/10 04:42:41;;;;;;;6.70;3.88;;;;;;;;;;5053304;28;20037;-83
2022/10/10 04:45:07;;;;;;;7.30;3.80;;;;;;;;;;5050755;28;20068;-82
2022/10/10 04:47:33;;;;;;;7.00;3.70;;;;;;;;;;5055115;28;20052;-83
2022/10/10 04:49:59;;;;;;;7.55;3.75;;;;;;;;;;5033575;28;20025;-82
2022/10/10 04:52:25;;;;;;;6.88;3.70;;;;;;;;;;5046200;28;20025;-81
2022/10/10 04:54:51;;;;;;;7.65;3.58;;;;;;;;;;5053545;28;20032;-82
2022/10/10 04:57:18;;;;;;;9.30;4.03;;;;;;;;;;5043551;28;20021;-83
2022/10/10 04:59:44;;;;;;;6.95;3.50;;;;;;;;;;5030883;28;20029;-83
2022/10/10 05:02:10;;;;;;;7.57;3.50;;;;;;;;;;5054063;28;20021;-82
2022/10/10 05:04:36;;;;;;;8.70;4.82;;;;;;;;;;5053658;28;20029;-83
2022/10/10 05:07:05;;;;;;;7.35;3.88;;;;;;;;;;5052038;28;20057;-82
2022/10/10 05:09:32;;;;;;;8.70;4.15;;;;;;;;;;5054338;28;20025;-83
2022/10/10 05:11:58;;;;;;;7.95;3.92;;;;;;;;;;5054333;28;20017;-83
2022/10/10 05:14:25;;;;;;;6.90;3.50;;;;;;;;;;5054531;28;20033;-82
2022/10/10 05:16:51;;;;;;;8.40;4.43;;;;;;;;;;5054690;28;20037;-83
2022/10/10 05:19:17;;;;;;;8.00;4.00;;;;;;;;;;5054503;28;20036;-83
2022/10/10 05:21:43;;;;;;;7.95;3.85;;;;;;;;;;5054052;28;20085;-82
2022/10/10 05:24:09;;;;;;;9.25;4.20;;;;;;;;;;5054562;28;20021;-84
2022/10/10 05:26:35;;;;;;;7.80;3.38;;;;;;;;;;5050789;28;20077;-83
2022/10/10 05:29:01;;;;;;;9.70;4.03;;;;;;;;;;5054601;28;20113;-84
2022/10/10 05:31:27;;;;;;;7.80;3.97;;;;;;;;;;5054022;28;20052;-84
2022/10/10 05:33:54;;;;;;;9.10;3.60;;;;;;;;;;5035539;28;20033;-83
2022/10/10 05:36:20;;;;;;;9.52;3.63;;;;;;;;;;5052737;28;20025;-85
2022/10/10 05:38:46;;;;;;;6.07;3.70;;;;;;;;;;5035648;28;20033;-83
2022/10/10 05:41:12;;;;;;;7.32;3.60;;;;;;;;;;5049365;28;20071;-84
2022/10/10 05:43:38;;;;;;;5.78;3.13;;;;;;;;;;5048106;28;20037;-85
2022/10/10 05:46:05;;;;;;;6.15;3.58;;;;;;;;;;5057112;28;20017;-83
2022/10/10 05:48:31;;;;;;;7.03;4.00;;;;;;;;;;5054354;28;20116;-84
2022/10/10 05:50:59;;;;;;;7.15;3.70;;;;;;;;;;5055231;28;20052;-83
2022/10/10 05:53:26;;;;;;;6.15;3.20;;;;;;;;;;5056208;28;20108;-84
2022/10/10 05:55:52;;;;;;;7.88;3.92;;;;;;;;;;5054699;28;20063;-85
2022/10/10 05:58:18;;;;;;;5.55;3.42;;;;;;;;;;5055147;28;20029;-84
2022/10/10 06:00:45;;;;;;;12.82;4.40;;;;;;;;;;5037330;28;20116;-83
2022/10/10 06:03:13;;;;;;;8.77;3.60;;;;;;;;;;5054976;28;20037;-82
2022/10/10 06:05:43;;;;;;;6.35;3.05;;;;;;;;;;5018667;28;20026;-80
2022/10/10 06:08:09;;;;;;;9.77;3.72;;;;;;;;;;5036226;28;20056;-81
2022/10/10 06:10:36;;;;;;;9.73;3.60;;;;;;;;;;5036111;28;20021;-81
2022/10/10 06:13:02;;;;;;;6.55;3.88;;;;;;;;;;5035883;28;20557;-82
2022/10/10 06:15:28;;;;;;;6.82;3.55;;;;;;;;;;5036332;28;20085;-82
2022/10/10 06:17:54;;;;;;;6.93;3.40;;;;;;;;;;5022972;28;20079;-81
2022/10/10 06:20:20;;;;;;;6.80;3.20;;;;;;;;;;5060038;28;20028;-82
2022/10/10 06:22:46;;;;;;;10.63;3.47;;;;;;;;;;5059253;28;20375;-82
2022/10/10 06:25:12;;;;;;;9.85;3.70;;;;;;;;;;5059378;28;20021;-84
2022/10/10 06:27:38;;;;;;;7.43;3.45;;;;;;;;;;5060246;28;20036;-83
2022/10/10 06:30:05;;;;;;;5.55;3.10;;;;;;;;;;5041183;28;20392;-84
2022/10/10 06:32:31;;;;;;;8.25;3.60;;;;;;;;;;5062570;28;20025;-82
2022/10/10 06:34:57;;;;;;;6.85;3.15;;;;;;;;;;5058896;28;20071;-84
2022/10/10 06:37:23;;;;;;;6.05;3.30;;;;;;;;;;5058970;28;20045;-82
2022/10/10 06:39:50;;;;;;;6.82;3.83;;;;;;;;;;5041228;28;20025;-82
2022/10/10 06:42:16;;;;;;;7.25;3.47;;;;;;;;;;5059019;28;20028;-84
2022/10/10 06:44:42;;;;;;;7.43;3.40;;;;;;;;;;5062751;28;20025;-87
2022/10/10 06:47:10;;;;;;;5.57;3.50;;;;;;;;;;5061697;28;20036;-82
2022/10/10 06:49:36;;;;;;;7.00;3.65;;;;;;;;;;5042736;28;20024;-82
2022/10/10 06:52:02;;;;;;;5.10;2.92;;;;;;;;;;5042791;28;20029;-85
2022/10/10 06:54:28;;;;;;;5.45;3.05;;;;;;;;;;5060712;28;20025;-84
2022/10/10 06:56:54;;;;;;;9.98;3.40;;;;;;;;;;5060459;28;20108;-82
2022/10/10 06:59:20;;;;;;;8.13;3.78;;;;;;;;;;5059431;28;20039;-80
2022/10/10 07:01:46;;;;;;;8.40;3.58;;;;;;;;;;5053613;28;20026;-85
2022/10/10 07:04:12;;;;;;;7.25;3.50;;;;;;;;;;5059150;28;20515;-83
2022/10/10 07:06:39;;;;;;;7.45;4.28;;;;;;;;;;5040609;28;20494;-82
2022/10/10 07:09:05;;;;;;;7.28;3.40;;;;;;;;;;5055560;28;20396;-84
2022/10/10 07:11:31;;;;;;;8.50;3.70;;;;;;;;;;5039854;28;20505;-85
2022/10/10 07:13:57;;;;;;;6.00;3.38;;;;;;;;;;5038882;28;20032;-84
2022/10/10 07:16:23;;;;;;;5.82;3.08;;;;;;;;;;5053225;28;20025;-82
2022/10/10 07:18:49;;;;;;;6.00;2.90;;;;;;;;;;5058974;28;20506;-84
2022/10/10 07:21:15;;;;;;;5.45;2.88;;;;;;;;;;5058470;28;20025;-84
2022/10/10 07:23:41;;;;;;;5.63;2.85;;;;;;;;;;5058325;28;20436;-85
2022/10/10 07:26:10;;;;;;;6.78;3.13;;;;;;;;;;5040312;28;20031;-84
2022/10/10 07:28:36;;;;;;;6.45;2.72;;;;;;;;;;5058229;28;20479;-85
2022/10/10 07:31:07;;;;;;;6.57;3.15;;;;;;;;;;5057449;28;20059;-84
2022/10/10 07:33:37;;;;;;;6.18;2.75;;;;;;;;;;5040463;28;20060;-85
2022/10/10 07:36:03;;;;;;;4.65;2.65;;;;;;;;;;5058646;28;20029;-85
2022/10/10 07:38:30;;;;;;;5.50;3.00;;;;;;;;;;5058069;28;20041;-84
2022/10/10 07:40:56;;;;;;;7.47;2.97;;;;;;;;;;5058587;28;20095;-83
2022/10/10 07:43:22;;;;;;;6.30;3.08;;;;;;;;;;5058792;28;20049;-84
2022/10/10 07:45:48;;;;;;;6.22;2.83;;;;;;;;;;5039568;28;20502;-84
2022/10/10 07:48:14;;;;;;;5.13;2.80;;;;;;;;;;5057072;28;20041;-85
2022/10/10 07:50:44;;;;;;;7.55;3.03;;;;;;;;;;5039425;28;20025;-83
2022/10/10 07:53:10;;;;;;;5.68;3.30;;;;;;;;;;5057611;28;20025;-82
2022/10/10 07:55:40;;;;;;;5.57;2.80;;;;;;;;;;5039185;28;20395;-82
2022/10/10 07:58:08;;;;;;;5.50;3.00;;;;;;;;;;5055086;28;20147;-83
2022/10/10 08:00:37;;;;;;;5.55;2.80;;;;;;;;;;5038994;28;20491;-83
2022/10/10 08:03:03;;;;;;;6.97;3.08;;;;;;;;;;5056177;28;20049;-82
2022/10/10 08:05:29;;;;;;;5.95;3.10;;;;;;;;;;5057781;28;20029;-85
2022/10/10 08:07:55;;;;;;;6.50;3.13;;;;;;;;;;5057357;28;20024;-83
2022/10/10 08:10:21;;;;;;;6.40;2.88;;;;;;;;;;5057365;28;20368;-84
2022/10/10 08:12:47;;;;;;;6.03;3.28;;;;;;;;;;5038280;28;20025;-85
2022/10/10 08:15:13;;;;;;;6.10;2.75;;;;;;;;;;5057271;28;20031;-84
2022/10/10 08:17:39;;;;;;;8.88;3.50;;;;;;;;;;5057666;28;20383;-83
2022/10/10 08:20:06;;;;;;;6.68;3.85;;;;;;;;;;5056980;28;20025;-84
2022/10/10 08:22:32;;;;;;;7.43;2.85;;;;;;;;;;5028118;28;20076;-82
2022/10/10 08:24:58;;;;;;;6.90;2.95;;;;;;;;;;5051078;28;20029;-82
2022/10/10 08:27:24;;;;;;;6.05;3.45;;;;;;;;;;5056669;28;20108;-84
2022/10/10 08:29:50;;;;;;;8.35;3.63;;;;;;;;;;5040286;28;20025;-85
2022/10/10 08:32:16;;;;;;;6.35;3.45;;;;;;;;;;5055627;28;20045;-85
2022/10/10 08:34:42;;;;;;;5.70;3.08;;;;;;;;;;5055719;28;20032;-83
2022/10/10 08:37:08;;;;;;;7.32;3.85;;;;;;;;;;5056254;28;20029;-86
2022/10/10 08:39:34;;;;;;;6.15;3.60;;;;;;;;;;5056020;28;20043;-84
2022/10/10 08:42:01;;;;;;;7.57;3.35;;;;;;;;;;5055626;28;20028;-85
2022/10/10 08:44:36;;;;;;;6.55;3.88;;;;;;;;;;5056228;28;20021;-86
2022/10/10 08:47:05;;;;;;;7.03;3.28;;;;;;;;;;5057003;28;20032;-85
2022/10/10 08:49:37;;;;;;;5.88;3.63;;;;;;;;;;5056739;28;20013;-86
2022/10/10 08:52:12;;;;;;;7.22;3.45;;;;;;;;;;5055717;28;20550;-84
2022/10/10 08:54:39;;;;;;;6.88;3.10;;;;;;;;;;5056783;28;20052;-84
2022/10/10 08:57:09;;;;;;;7.03;3.80;;;;;;;;;;5057782;28;20025;-84
2022/10/10 08:59:38;;;;;;;6.20;3.40;;;;;;;;;;5056299;28;20032;-83
2022/10/10 09:02:34;;;;;;;7.30;3.85;;;;;;;;;;5056554;28;20376;-84
2022/10/10 09:05:00;;;;;;;6.95;4.28;;;;;;;;;;5041847;28;20061;-84
2022/10/10 09:07:38;;;;;;;5.78;3.58;;;;;;;;;;5039206;28;20487;-83
2022/10/10 09:10:07;;;;;;;6.75;3.60;;;;;;;;;;5039012;28;20028;-83
2022/10/10 09:12:36;;;;;;;7.53;3.80;;;;;;;;;;5038632;28;20047;-81
2022/10/10 09:15:11;;;;;;;6.43;3.88;;;;;;;;;;5056425;28;20025;-85
2022/10/10 09:17:46;;;;;;;8.55;4.00;;;;;;;;;;5056310;28;20104;-82
2022/10/10 09:20:21;;;;;;;7.40;3.88;;;;;;;;;;5056732;28;20032;-84
2022/10/10 09:22:57;;;;;;;6.47;3.53;;;;;;;;;;5056157;28;20520;-84
2022/10/10 09:25:29;;;;;;;7.60;4.10;;;;;;;;;;5055679;28;20082;-83
2022/10/10 09:27:58;;;;;;;7.35;3.97;;;;;;;;;;5056894;28;20060;-82
2022/10/10 09:30:24;;;;;;;7.85;4.35;;;;;;;;;;5039020;28;20064;-84
2022/10/10 09:33:16;;;;;;;7.18;4.00;;;;;;;;;;5053675;28;20043;-83
2022/10/10 09:35:42;;;;;;;9.00;3.95;;;;;;;;;;5055227;28;20510;-83
2022/10/10 09:38:29;;;;;;;7.10;4.15;;;;;;;;;;5055557;28;20029;-83
2022/10/10 09:40:59;;;;;;;8.20;4.45;;;;;;;;;;5054924;28;20052;-83
2022/10/10 09:43:28;;;;;;;8.88;4.97;;;;;;;;;;5054752;28;20033;-84
2022/10/10 09:45:55;;;;;;;8.07;5.47;;;;;;;;;;5056973;28;20025;-83
2022/10/10 09:48:25;;;;;;;8.95;4.95;;;;;;;;;;5056074;28;20103;-83
2022/10/10 09:50:51;;;;;;;6.95;4.68;;;;;;;;;;5054805;28;20075;-80
2022/10/10 09:53:17;;;;;;;7.10;4.68;;;;;;;;;;5057414;28;20036;-82
2022/10/10 09:55:45;;;;;;;11.52;4.75;;;;;;;;;;5059597;28;20025;-85
2022/10/10 09:58:30;;;;;;;9.65;4.65;;;;;;;;;;5056482;28;20100;-84
2022/10/10 10:01:09;;;;;;;8.77;4.63;;;;;;;;;;5054831;28;20028;-82
2022/10/10 10:03:35;;;;;;;7.55;4.32;;;;;;;;;;5054724;28;20394;-82
2022/10/10 10:06:02;;;;;;;7.57;4.53;;;;;;;;;;5054996;28;20069;-82
2022/10/10 10:08:30;;;;;;;8.88;4.10;;;;;;;;;;5056404;28;20022;-83
2022/10/10 10:10:57;;;;;;;7.53;4.03;;;;;;;;;;5056838;28;20025;-83
2022/10/10 10:13:27;;;;;;;7.45;4.35;;;;;;;;;;5055521;28;20055;-85
2022/10/10 10:16:19;;;;;;;6.28;4.00;;;;;;;;;;5054057;28;20017;-84
2022/10/10 10:18:47;;;;;;;6.10;3.80;;;;;;;;;;5027485;28;20041;-84
2022/10/10 10:21:17;;;;;;;7.82;4.50;;;;;;;;;;5057197;28;20025;-83
2022/10/10 10:23:57;;;;;;;6.90;4.00;;;;;;;;;;5055216;28;20442;-85
2022/10/10 10:26:23;;;;;;;7.88;3.80;;;;;;;;;;5055783;28;20364;-83
2022/10/10 10:28:50;;;;;;;6.88;3.92;;;;;;;;;;5037990;28;20374;-83
2022/10/10 10:31:36;;;;;;;7.00;4.00;;;;;;;;;;5054737;28;20021;-84
2022/10/10 10:34:08;;;;;;;6.38;3.85;;;;;;;;;;5056180;28;20467;-84
2022/10/10 10:36:37;;;;;;;8.30;3.83;;;;;;;;;;5055198;28;20032;-84
2022/10/10 10:39:24;;;;;;;7.80;4.25;;;;;;;;;;5056573;28;20085;-84
2022/10/10 10:41:50;;;;;;;7.88;4.10;;;;;;;;;;5054558;28;20504;-83
2022/10/10 10:44:16;;;;;;;8.45;4.43;;;;;;;;;;5049628;28;20033;-85
2022/10/10 10:47:03;;;;;;;7.65;4.80;;;;;;;;;;5055055;28;20465;-83
2022/10/10 10:49:32;;;;;;;10.07;4.40;;;;;;;;;;5054843;28;20040;-86
2022/10/10 10:52:07;;;;;;;9.10;4.78;;;;;;;;;;5038043;28;20017;-86
2022/10/10 10:54:39;;;;;;;8.55;5.60;;;;;;;;;;5055670;28;20025;-85
2022/10/10 10:57:11;;;;;;;10.40;5.82;;;;;;;;;;5055792;28;20025;-85
2022/10/10 10:59:55;;;;;;;8.10;5.28;;;;;;;;;;5046823;28;20021;-85
2022/10/10 11:02:21;;;;;;;7.35;4.82;;;;;;;;;;5055301;28;20031;-83
2022/10/10 11:05:02;;;;;;;7.93;5.00;;;;;;;;;;5058845;28;20111;-84
2022/10/10 11:07:34;;;;;;;8.65;4.53;;;;;;;;;;5059225;28;20021;-84
2022/10/10 11:10:09;;;;;;;7.80;4.90;;;;;;;;;;5059373;28;20099;-84
2022/10/10 11:12:58;;;;;;;7.05;4.95;;;;;;;;;;5058315;28;20033;-83
2022/10/10 11:15:36;;;;;;;6.90;4.10;;;;;;;;;;5059062;28;20028;-82
2022/10/10 11:18:14;;;;;;;8.32;4.28;;;;;;;;;;5058872;28;20025;-85
2022/10/10 11:20:46;;;;;;;7.45;4.35;;;;;;;;;;5041110;28;20017;-82
2022/10/10 11:23:38;;;;;;;7.30;4.72;;;;;;;;;;5052403;28;20033;-84
2022/10/10 11:26:06;;;;;;;8.73;4.70;;;;;;;;;;4996646;28;20073;-81
2022/10/10 11:28:36;;;;;;;8.65;4.47;;;;;;;;;;4984000;28;20249;-83
2022/10/10 11:31:13;;;;;;;6.38;4.25;;;;;;;;;;4989225;28;20054;-84
2022/10/10 11:33:43;;;;;;;8.43;5.30;;;;;;;;;;4981950;28;20035;-83
2022/10/10 11:36:17;;;;;;;7.78;4.68;;;;;;;;;;4995806;28;20050;-83
2022/10/10 11:39:02;;;;;;;8.45;4.55;;;;;;;;;;4996640;28;20030;-83
2022/10/10 11:41:51;;;;;;;9.98;4.82;;;;;;;;;;4962377;28;20210;-84
2022/10/10 11:44:36;;;;;;;7.38;4.35;;;;;;;;;;4985992;28;20050;-82
2022/10/10 11:47:20;;;;;;;8.70;4.30;;;;;;;;;;4997110;28;20630;-83
2022/10/10 11:49:58;;;;;;;9.07;4.60;;;;;;;;;;4994468;28;20049;-83
2022/10/10 11:52:44;;;;;;;6.93;4.85;;;;;;;;;;4980397;28;20030;-81
2022/10/10 11:55:15;;;;;;;8.25;5.47;;;;;;;;;;4996493;28;20117;-83
2022/10/10 11:57:47;;;;;;;8.30;4.30;;;;;;;;;;4996321;28;20102;-83
2022/10/10 12:00:14;;;;;;;8.70;5.30;;;;;;;;;;4996399;28;20051;-83
2022/10/10 12:02:41;;;;;;;7.85;4.43;;;;;;;;;;5004923;28;20048;-82
2022/10/10 12:05:17;;;;;;;8.63;4.90;;;;;;;;;;5040969;28;20025;-82
2022/10/10 12:07:46;;;;;;;7.57;4.20;;;;;;;;;;5059467;28;20036;-83
2022/10/10 12:10:19;;;;;;;7.95;4.93;;;;;;;;;;5059933;28;20491;-81
2022/10/10 12:12:46;;;;;;;6.45;4.22;;;;;;;;;;5054911;28;20025;-83
2022/10/10 12:15:23;;;;;;;7.20;4.32;;;;;;;;;;5059598;28;20027;-83
2022/10/10 12:17:49;;;;;;;8.60;4.57;;;;;;;;;;5062332;28;20005;-83
2022/10/10 12:20:21;;;;;;;7.90;4.72;;;;;;;;;;5071281;28;20021;-81
2022/10/10 12:23:05;;;;;;;7.45;4.38;;;;;;;;;;5071732;28;20029;-80
2022/10/10 12:25:41;;;;;;;7.50;4.78;;;;;;;;;;5070673;28;20017;-82
2022/10/10 12:28:13;;;;;;;8.82;5.40;;;;;;;;;;5063981;28;20021;-82
2022/10/10 12:31:02;;;;;;;8.20;4.90;;;;;;;;;;5070478;28;20155;-81
2022/10/10 12:33:28;;;;;;;9.52;5.03;;;;;;;;;;5010949;28;20051;-84
2022/10/10 12:35:54;;;;;;;8.57;5.43;;;;;;;;;;5060436;28;20111;-80
2022/10/10 12:38:24;;;;;;;9.73;4.80;;;;;;;;;;5056510;28;20028;-82
2022/10/10 12:41:04;;;;;;;7.65;4.70;;;;;;;;;;5059541;28;20084;-82
2022/10/10 12:43:38;;;;;;;9.38;4.80;;;;;;;;;;5049057;28;20029;-82
2022/10/10 12:46:07;;;;;;;7.55;4.50;;;;;;;;;;5022186;28;20021;-81
2022/10/10 12:48:33;;;;;;;7.40;4.70;;;;;;;;;;5020297;28;20522;-83
2022/10/10 12:51:00;;;;;;;6.75;4.18;;;;;;;;;;5039001;28;20021;-81
2022/10/10 12:53:27;;;;;;;7.22;5.00;;;;;;;;;;5038800;28;20124;-82
2022/10/10 12:55:55;;;;;;;6.72;4.57;;;;;;;;;;5037025;28;20059;-83
2022/10/10 12:58:32;;;;;;;10.88;5.40;;;;;;;;;;5039302;28;20049;-82
2022/10/10 13:00:59;;;;;;;8.15;4.93;;;;;;;;;;5042005;28;20026;-83
2022/10/10 13:03:28;;;;;;;7.82;4.75;;;;;;;;;;5041189;28;20029;-82
2022/10/10 13:05:55;;;;;;;9.90;4.93;;;;;;;;;;5037735;28;20033;-81
2022/10/10 13:08:26;;;;;;;7.07;4.47;;;;;;;;;;5037629;28;20101;-83
2022/10/10 13:11:12;;;;;;;8.43;4.68;;;;;;;;;;5036484;28;20507;-83
2022/10/10 13:13:39;;;;;;;7.63;4.57;;;;;;;;;;5038143;28;20028;-82
2022/10/10 13:16:11;;;;;;;8.20;4.70;;;;;;;;;;5037013;28;20084;-83
2022/10/10 13:18:39;;;;;;;8.45;4.55;;;;;;;;;;5037457;28;20060;-82
2022/10/10 13:21:06;;;;;;;6.88;4.22;;;;;;;;;;5035944;28;20087;-82
2022/10/10 13:23:33;;;;;;;7.90;4.95;;;;;;;;;;5037893;28;20399;-82
2022/10/10 13:26:01;;;;;;;7.72;4.40;;;;;;;;;;5036882;28;20029;-82
2022/10/10 13:28:27;;;;;;;7.95;4.43;;;;;;;;;;5037269;28;20492;-81
2022/10/10 13:30:53;;;;;;;12.15;5.07;;;;;;;;;;5034625;28;20034;-82
2022/10/10 13:33:21;;;;;;;8.48;4.97;;;;;;;;;;5036274;28;20028;-81
2022/10/10 13:35:48;;;;;;;9.63;5.30;;;;;;;;;;5036344;28;20056;-81
2022/10/10 13:38:15;;;;;;;6.85;4.57;;;;;;;;;;5036411;28;20033;-82
2022/10/10 13:40:42;;;;;;;6.68;4.65;;;;;;;;;;5036318;28;20037;-81
2022/10/10 13:43:16;;;;;;;7.13;4.32;;;;;;;;;;5037276;28;20025;-82
2022/10/10 13:45:59;;;;;;;8.38;5.03;;;;;;;;;;5037111;28;20392;-82
2022/10/10 13:48:34;;;;;;;6.90;4.97;;;;;;;;;;5048502;28;20048;-80
2022/10/10 13:51:02;;;;;;;8.68;4.70;;;;;;;;;;5056397;28;20029;-82
2022/10/10 13:53:29;;;;;;;8.82;5.15;;;;;;;;;;5057217;28;20103;-82
2022/10/10 13:56:14;;;;;;;7.63;5.40;;;;;;;;;;5055563;28;20021;-83
2022/10/10 13:58:54;;;;;;;7.35;5.03;;;;;;;;;;5055160;28;20028;-82
2022/10/10 14:01:31;;;;;;;8.73;5.30;;;;;;;;;;5049938;28;20017;-82
2022/10/10 14:04:06;;;;;;;8.73;5.50;;;;;;;;;;5052570;28;20029;-81
2022/10/10 14:06:33;;;;;;;8.63;4.80;;;;;;;;;;5056463;28;20021;-82
2022/10/10 14:09:22;;;;;;;8.15;4.90;;;;;;;;;;5056840;28;20017;-83
2022/10/10 14:11:50;;;;;;;10.20;5.57;;;;;;;;;;5023362;28;20033;-82
2022/10/10 14:14:24;;;;;;;9.32;5.47;;;;;;;;;;5037424;28;20056;-82
2022/10/10 14:16:57;;;;;;;8.68;4.75;;;;;;;;;;5056329;28;20056;-85
2022/10/10 14:19:24;;;;;;;7.13;4.57;;;;;;;;;;5055305;28;20025;-84
2022/10/10 14:21:50;;;;;;;8.00;4.53;;;;;;;;;;5033348;28;20049;-83
2022/10/10 14:24:16;;;;;;;7.68;4.57;;;;;;;;;;5036752;28;20398;-83
2022/10/10 14:26:42;;;;;;;8.65;5.00;;;;;;;;;;5055138;28;20033;-83
2022/10/10 14:29:15;;;;;;;10.00;4.40;;;;;;;;;;5056054;28;20036;-83
2022/10/10 14:31:41;;;;;;;;;;;;;;;;;;5051557;28;20552;-82
2022/10/10 14:34:08;;;;;;;6.40;4.05;;;;;;;;;;5054895;28;19912;-83
2022/10/10 14:36:34;;;;;;;8.13;4.25;;;;;;;;;;5053287;28;20391;-83
2022/10/10 14:39:00;;;;;;;8.05;4.97;;;;;;;;;;5036158;28;20021;-84
2022/10/10 14:41:26;;;;;;;7.93;4.20;;;;;;;;;;5054614;28;20025;-83
2022/10/10 14:43:52;;;;;;;7.90;4.60;;;;;;;;;;5054888;28;20060;-83
2022/10/10 14:46:19;;;;;;;7.32;4.40;;;;;;;;;;5060388;28;20697;-80
2022/10/10 14:48:45;;;;;;;7.40;4.50;;;;;;;;;;5059964;28;20039;-84
2022/10/10 14:51:12;;;;;;;8.00;5.40;;;;;;;;;;5059641;28;20269;-82
2022/10/10 14:53:41;;;;;;;8.05;4.57;;;;;;;;;;5036155;28;20040;-82